Redwood City, CA

11:45 AM PDT on September 18, 2014 (GMT -0700)
Evergreen Park | Change Station
CLOSE
Current Station
Personal Weather Station
Location: Palo Alto, CA
Elevation: 35 ft
Nearby Weather Stations

Elev 35 ft 37.43 °N, 122.15 °W | Updated 4 minutes ago

Mostly Cloudy
Mostly Cloudy
°F
Feels Like °F
N
-
Wind Variable Wind from North

Today
High -- | Low -- °F
--% Chance of Precip.
Yesterday
High -- | Low -- °F
Precip. -- in
6:53 AM 7:11 PM
Waning Crescent, 25% visible
Pressure 29.87 in
Visibility 10.0 miles
Clouds Mostly Cloudy 2500 ft
Mostly Cloudy 4400 ft
Dew Point Not available.
Humidity Not available.
Rainfall -999.00 in
Snow Depth 0 in , 0 in , 0 in
UV 3 out of 12
Pollen 5.10 out of 12
PM2.5 Good
Flu Activity Not available.
METAR KSQL 181747Z 19010KT 10SM BKN025 BKN044 24/15 A2987

More Conditions Fewer Conditions

Pressure 29.87 in
Visibility 10.0 miles
Clouds Mostly Cloudy 2500 ft
Mostly Cloudy 4400 ft
Dew Point Not available.
Humidity Not available.
Rainfall -999.00 in
Snow Depth 0 in , 0 in , 0 in
UV 3 out of 12
Pollen 5.10 out of 12
PM2.5 Good
Flu Activity Not available.
METAR KSQL 181747Z 19010KT 10SM BKN025 BKN044 24/15 A2987

More Conditions Fewer Conditions

10-Day Weather Forecast

Almanac

Astronomy

Sep. 18, 2014 Rise Set
Actual Time 6:53 AM PDT 7:11 PM PDT
Civil Twilight 6:27 AM PDT 7:37 PM PDT
Nautical Twilight 5:56 AM PDT 8:08 PM PDT
Astronomical Twilight 5:25 AM PDT 8:39 PM PDT
Moon 1:54 AM PDT 4:02 PM PDT
Length of Visible Light 13h 10m
Length of Day
12h 18m
Tomorrow will be 2m 23s shorter.
Waning Crescent, 25% of the Moon is Illuminated
Today
Waning Crescent
Sep 24
New
Oct 1
First Quarter
Oct 8
Full
Oct 15
Last Quarter

Today's Extremes

State Highs State Lows

Community

WunderPhotos

Upload Photos

1,754,417 photos uploaded!

WunderBlogs® & News

Nearby

Air Quality

  Air Quality AQ Index Pollutant
Yesterday Good
PM2.5
Yesterday Good
OZONE
Current Good
PM2.5
Thursday Good
OZONE
Friday Good
OZONE
Saturday Good
PM2.5
Sunday Good
PM2.5
Monday Good
PM2.5

Snow Depth

Station Depth Elevation
Crowder Flat 0 in 5100 ft
Tahoe City Cross 0 in 6750 ft
Blue Lakes 0 in 8000 ft
Summit Meadow 0 in 9122 ft
Leavitt Meadows 0 in 7200 ft

Earthquake Activity

City Distance Mag. Time & Date
The Geysers, California 91 miles 2.5 11:29 PM PDT
2014-09-17
Cobb, California 94 miles 2.7 1:23 PM PDT
2014-09-16
Minimum magnitude displayed is 2.5.

Coastal Water Temperatures

Place Temperature
No Stations Reporting

Nearby Weather Stations